Time;durP1;ratioP1;P1;durP2;ratioP2;P2;SDS_P1;SDS_P2;PMS_P1;PMS_P2;Temp;Humidity;BMP_temperature;BMP_pressure;BME280_temperature;BME280_humidity;BME280_pressure;Samples;Min_cycle;Max_cycle;Signal;HPM_P1;HPM_P2
2020/12/16 00:01:42;;;;;;;8.57;7.67;;;11.00;99.90;;;11.69;63.20;101148.47;4878382;28;99216;-60
2020/12/16 00:04:08;;;;;;;12.33;8.77;;;11.10;99.90;;;11.72;63.53;101152.81;4885169;28;108004;-60
2020/12/16 00:06:34;;;;;;;10.57;8.50;;;11.10;99.90;;;11.74;63.18;101151.00;4880883;28;100792;-65
2020/12/16 00:09:00;;;;;;;10.13;8.90;;;11.20;99.90;;;11.78;63.57;101147.34;4881845;28;102335;-61
2020/12/16 00:11:26;;;;;;;10.00;9.00;;;11.20;99.90;;;11.88;63.48;101154.94;4896042;28;96938;-61
2020/12/16 00:13:52;;;;;;;9.83;8.83;;;11.30;99.90;;;11.90;63.07;101154.91;4883555;28;100236;-61
2020/12/16 00:16:17;;;;;;;9.97;8.97;;;11.30;99.90;;;11.88;63.32;101164.66;4901062;28;99333;-61
2020/12/16 00:18:44;;;;;;;11.13;9.07;;;11.30;99.90;;;11.92;62.94;101158.34;4869694;28;98992;-61
2020/12/16 00:21:10;;;;;;;10.17;9.17;;;11.40;99.90;;;11.95;63.40;101165.31;4896315;28;97463;-61
2020/12/16 00:23:36;;;;;;;9.07;8.03;;;11.40;99.90;;;11.93;63.31;101162.72;4867817;28;98480;-61
2020/12/16 00:26:03;;;;;;;10.27;9.27;;;11.40;99.90;;;12.00;63.74;101164.22;4896166;28;100527;-61
2020/12/16 00:28:30;;;;;;;9.43;8.53;;;11.40;99.90;;;11.96;63.51;101162.59;4883128;28;98925;-62
2020/12/16 00:30:55;;;;;;;11.23;10.10;;;11.50;99.90;;;11.96;63.70;101167.91;4885849;28;98966;-60
2020/12/16 00:33:21;;;;;;;11.03;9.90;;;11.50;99.90;;;11.99;64.35;101159.84;4899744;28;98805;-61
2020/12/16 00:35:47;;;;;;;11.80;10.60;;;11.50;99.90;;;12.00;63.84;101161.59;4866338;28;99208;-61
2020/12/16 00:38:14;;;;;;;10.97;9.80;;;11.50;99.90;;;11.97;64.09;101166.97;4892450;28;100802;-61
2020/12/16 00:40:40;;;;;;;13.47;10.57;;;11.50;99.90;;;11.94;64.39;101169.72;4865539;28;101864;-61
2020/12/16 00:43:06;;;;;;;10.60;9.57;;;11.50;99.90;;;11.96;64.40;101170.53;4878919;28;98364;-61
2020/12/16 00:45:32;;;;;;;10.57;9.50;;;11.50;99.90;;;11.99;64.25;101173.06;4884972;28;106357;-61
2020/12/16 00:47:58;;;;;;;10.10;9.13;;;11.50;99.90;;;12.03;64.17;101185.31;4898408;28;98166;-61
2020/12/16 00:50:24;;;;;;;9.70;8.70;;;11.50;99.90;;;12.08;64.15;101178.06;4872968;28;97251;-61
2020/12/16 00:52:50;;;;;;;9.27;8.27;;;11.60;99.90;;;12.23;64.02;101175.81;4879320;28;97332;-60
2020/12/16 00:55:16;;;;;;;10.87;9.07;;;11.60;99.90;;;12.10;64.15;101186.81;4874329;28;114362;-61
2020/12/16 00:57:44;;;;;;;11.70;8.67;;;11.60;99.90;;;12.10;64.27;101189.44;4882931;28;98323;-61
2020/12/16 01:00:11;;;;;;;9.03;8.13;;;11.60;99.90;;;12.07;64.36;101181.63;4872549;28;100919;-61
2020/12/16 01:02:45;;;;;;;9.37;8.47;;;11.60;99.90;;;12.19;64.78;101186.50;4892566;28;97769;-61
2020/12/16 01:05:16;;;;;;;10.83;7.63;;;11.70;99.90;;;12.15;64.70;101187.53;4895581;28;98823;-60
2020/12/16 01:07:42;;;;;;;9.40;8.50;;;11.70;99.90;;;12.23;64.37;101175.81;4866409;28;99136;-61
2020/12/16 01:10:10;;;;;;;9.10;7.73;;;11.70;99.90;;;12.34;63.89;101185.13;4900131;28;99090;-60
2020/12/16 01:12:46;;;;;;;8.80;7.90;;;11.80;99.90;;;12.36;64.08;101182.41;4880568;28;97425;-61
2020/12/16 01:15:18;;;;;;;9.03;8.13;;;11.80;99.90;;;12.38;63.63;101185.88;4883189;28;99602;-61
2020/12/16 01:17:45;;;;;;;7.93;7.23;;;11.80;99.90;;;12.38;64.02;101191.16;4877887;28;98658;-61
2020/12/16 01:20:12;;;;;;;10.60;8.17;;;11.80;99.90;;;12.37;64.02;101197.38;4882138;28;97823;-61
2020/12/16 01:22:46;;;;;;;8.80;7.83;;;11.80;99.90;;;12.47;63.80;101190.84;4862639;28;98249;-61
2020/12/16 01:25:15;;;;;;;8.30;7.27;;;11.90;99.90;;;12.51;63.57;101190.69;4896056;28;100162;-62
2020/12/16 01:27:41;;;;;;;9.07;8.17;;;12.00;99.90;;;12.52;63.32;101188.91;4859487;28;107991;-62
2020/12/16 01:30:09;;;;;;;9.63;7.73;;;12.00;99.90;;;12.52;63.43;101183.59;4896088;28;99090;-62
2020/12/16 01:32:37;;;;;;;11.87;8.93;;;12.00;99.90;;;12.50;63.53;101182.81;4871007;28;101891;-62
2020/12/16 01:35:07;;;;;;;8.47;7.67;;;12.00;99.90;;;12.60;63.13;101180.72;4896023;28;97081;-62
2020/12/16 01:37:37;;;;;;;10.13;8.00;;;12.00;99.90;;;12.53;63.01;101174.75;4884138;28;97749;-62
2020/12/16 01:40:08;;;;;;;9.57;8.00;;;12.00;99.90;;;12.54;63.18;101191.50;4879601;28;97640;-61
2020/12/16 01:42:35;;;;;;;9.00;7.63;;;12.00;99.90;;;12.54;62.96;101192.34;4865800;28;97850;-62
2020/12/16 01:45:13;;;;;;;8.00;7.20;;;12.00;99.90;;;12.62;62.62;101200.91;4895264;28;98217;-62
2020/12/16 01:47:39;;;;;;;9.57;8.53;;;12.00;99.90;;;12.78;62.72;101202.06;4871787;28;99725;-62
2020/12/16 01:50:07;;;;;;;9.03;7.90;;;12.10;99.90;;;12.80;62.19;101194.94;4877143;28;97141;-62
2020/12/16 01:52:36;;;;;;;9.63;8.60;;;12.10;99.90;;;12.75;62.42;101199.53;4904260;28;100894;-61
2020/12/16 01:55:06;;;;;;;9.53;8.60;;;12.20;99.90;;;12.72;62.41;101207.56;4862680;28;103078;-62
2020/12/16 01:57:45;;;;;;;10.17;8.23;;;12.20;99.90;;;12.63;62.99;101207.91;4899353;28;100626;-62
2020/12/16 02:00:13;;;;;;;9.00;7.57;;;12.10;99.90;;;12.56;63.15;101216.97;4867468;28;97858;-61
2020/12/16 02:02:53;;;;;;;8.53;7.63;;;12.00;99.90;;;12.53;63.72;101222.38;4900412;28;97929;-62
2020/12/16 02:05:22;;;;;;;9.67;8.70;;;12.00;99.90;;;12.52;63.56;101215.38;4873056;28;100266;-62
2020/12/16 02:07:53;;;;;;;9.27;8.37;;;12.00;99.90;;;12.51;63.14;101213.63;4897819;28;98856;-61
2020/12/16 02:10:19;;;;;;;9.00;7.10;;;12.00;99.90;;;12.46;63.14;101211.16;4897037;28;98875;-61
2020/12/16 02:12:44;;;;;;;10.57;8.00;;;12.00;99.90;;;12.46;63.62;101215.59;4881340;28;97444;-61
2020/12/16 02:15:10;;;;;;;9.20;7.67;;;11.90;99.90;;;12.42;63.75;101214.81;4885252;28;99629;-62
2020/12/16 02:17:36;;;;;;;11.00;8.17;;;11.90;99.90;;;12.40;63.42;101214.00;4896050;28;101196;-62
2020/12/16 02:20:07;;;;;;;9.17;8.23;;;11.90;99.90;;;12.41;63.73;101206.94;4863714;28;98638;-62
2020/12/16 02:22:33;;;;;;;9.20;8.30;;;11.90;99.90;;;12.40;63.59;101211.34;4874963;28;100014;-62
2020/12/16 02:25:11;;;;;;;10.60;8.37;;;11.90;99.90;;;12.39;63.39;101219.34;4880184;28;100231;-62
2020/12/16 02:27:40;;;;;;;9.20;8.23;;;11.80;99.90;;;12.37;63.50;101215.91;4878333;28;99295;-62
2020/12/16 02:30:08;;;;;;;9.30;7.63;;;11.80;99.90;;;12.35;63.28;101217.72;4880961;28;102924;-62
2020/12/16 02:32:35;;;;;;;9.23;7.37;;;11.80;99.90;;;12.30;63.73;101217.03;4896973;28;98280;-62
2020/12/16 02:35:01;;;;;;;11.37;8.20;;;11.80;99.90;;;12.30;63.86;101217.91;4881217;28;102211;-62
2020/12/16 02:37:27;;;;;;;8.43;7.43;;;11.80;99.90;;;12.25;63.64;101226.88;4865501;28;98796;-61
2020/12/16 02:39:53;;;;;;;7.87;7.17;;;11.80;99.90;;;12.21;63.59;101227.00;4895971;28;99157;-61
2020/12/16 02:42:25;;;;;;;11.20;8.43;;;11.70;99.90;;;12.23;63.48;101224.28;4883893;28;97903;-62
2020/12/16 02:44:53;;;;;;;8.93;8.03;;;11.70;99.90;;;12.18;63.35;101216.53;4880870;28;100199;-62
2020/12/16 02:47:19;;;;;;;9.20;7.77;;;11.70;99.90;;;12.14;63.50;101216.66;4886009;28;99019;-62
2020/12/16 02:49:45;;;;;;;8.70;7.70;;;11.60;99.90;;;12.09;63.25;101216.81;4878529;28;99856;-62
2020/12/16 02:52:11;;;;;;;8.47;7.37;;;11.60;99.90;;;12.07;63.27;101220.44;4884057;28;98764;-62
2020/12/16 02:54:37;;;;;;;7.87;7.10;;;11.60;99.90;;;12.04;63.09;101223.19;4913756;28;99550;-61
2020/12/16 02:57:06;;;;;;;9.53;8.20;;;11.50;99.90;;;12.08;63.53;101219.50;4875906;28;99992;-62
2020/12/16 02:59:33;;;;;;;8.53;7.63;;;11.50;99.90;;;12.08;63.09;101215.09;4917466;28;96851;-62
2020/12/16 03:01:59;;;;;;;8.77;7.63;;;11.50;99.90;;;12.05;62.88;101212.56;4899799;28;114675;-62
2020/12/16 03:04:26;;;;;;;8.27;7.47;;;11.50;99.90;;;12.05;62.66;101207.25;4902605;28;100289;-62
2020/12/16 03:06:56;;;;;;;8.50;7.60;;;11.50;99.90;;;12.17;62.67;101204.22;4904105;28;100508;-62
2020/12/16 03:09:25;;;;;;;10.00;8.13;;;11.50;99.90;;;12.15;62.37;101206.06;4893615;28;98477;-62
2020/12/16 03:11:53;;;;;;;11.00;7.73;;;11.50;99.90;;;12.19;62.52;101207.66;4912050;28;96803;-62
2020/12/16 03:14:19;;;;;;;9.10;8.20;;;11.50;99.90;;;12.12;62.22;101206.13;4900757;28;99067;-62
2020/12/16 03:16:45;;;;;;;8.43;7.67;;;11.50;99.90;;;12.08;61.24;101212.44;4904782;28;97234;-62
2020/12/16 03:19:11;;;;;;;9.77;7.93;;;11.50;99.90;;;12.04;62.09;101208.19;4895106;28;96860;-62
2020/12/16 03:21:38;;;;;;;10.40;8.30;;;11.40;99.90;;;12.03;62.60;101205.59;4918180;28;97041;-62
2020/12/16 03:24:03;;;;;;;9.50;8.23;;;11.40;99.90;;;12.02;62.46;101204.72;4901248;28;99004;-62
2020/12/16 03:26:29;;;;;;;9.00;8.10;;;11.40;99.90;;;11.91;61.77;101196.28;4893944;28;115420;-62
2020/12/16 03:28:55;;;;;;;8.07;7.27;;;11.40;99.90;;;11.89;62.15;101198.97;4894874;28;99520;-62
2020/12/16 03:31:21;;;;;;;8.23;7.37;;;11.30;99.90;;;11.88;62.36;101191.97;4916171;28;96867;-65
2020/12/16 03:33:47;;;;;;;7.93;7.13;;;11.30;99.90;;;11.86;61.85;101193.78;4885954;28;103707;-62
2020/12/16 03:36:22;;;;;;;8.50;7.70;;;11.30;99.90;;;11.86;62.00;101203.47;4899357;28;99287;-62
2020/12/16 03:38:48;;;;;;;8.37;7.50;;;11.30;99.90;;;11.81;61.92;101200.13;4891879;28;96954;-61
2020/12/16 03:41:16;;;;;;;8.70;7.80;;;11.20;99.90;;;11.90;62.13;101202.47;4916338;28;97025;-61
2020/12/16 03:43:50;;;;;;;9.53;7.57;;;11.30;99.90;;;11.78;61.45;101205.47;4880342;28;100753;-62
2020/12/16 03:46:17;;;;;;;7.23;6.53;;;11.20;99.90;;;11.82;62.47;101191.28;4897892;28;100162;-62
2020/12/16 03:48:44;;;;;;;7.67;6.97;;;11.20;99.90;;;11.76;61.71;101187.03;4912386;28;97332;-61
2020/12/16 03:51:14;;;;;;;8.37;7.23;;;11.20;99.90;;;11.76;61.18;101188.81;4911880;28;97507;-62
2020/12/16 03:53:40;;;;;;;9.53;7.30;;;11.10;99.90;;;11.74;60.78;101188.00;4900197;28;97598;-66
2020/12/16 03:56:07;;;;;;;8.10;7.30;;;11.10;99.90;;;11.79;61.50;101186.09;4895649;28;102486;-62
2020/12/16 03:58:34;;;;;;;8.60;7.80;;;11.10;99.90;;;11.96;62.10;101181.13;4916407;28;96793;-62
2020/12/16 04:01:06;;;;;;;9.33;7.77;;;11.20;99.90;;;11.95;61.33;101189.97;4904469;28;104285;-62
2020/12/16 04:03:32;;;;;;;8.63;7.83;;;11.20;99.90;;;12.06;62.41;101179.91;4917508;28;97652;-62
2020/12/16 04:05:59;;;;;;;10.13;8.33;;;11.30;99.90;;;11.99;61.59;101173.06;4883783;28;101731;-62
2020/12/16 04:08:25;;;;;;;9.33;8.30;;;11.30;99.90;;;12.17;62.05;101172.47;4896356;28;97110;-62
2020/12/16 04:10:51;;;;;;;10.20;8.33;;;11.40;99.90;;;12.12;61.35;101169.09;4877254;28;96712;-62
2020/12/16 04:13:17;;;;;;;9.77;8.70;;;11.40;99.90;;;12.08;62.00;101178.06;4894020;28;101726;-61
2020/12/16 04:15:45;;;;;;;9.47;8.47;;;11.40;99.90;;;12.08;61.64;101178.06;4905115;28;102559;-62
2020/12/16 04:18:11;;;;;;;4.20;3.80;;;11.40;99.90;;;12.41;61.76;101164.59;4895491;28;97690;-62
2020/12/16 04:20:37;;;;;;;10.03;8.33;;;11.60;99.90;;;12.62;61.15;101158.56;4912797;28;97394;-61
2020/12/16 04:23:06;;;;;;;9.40;7.63;;;11.80;99.90;;;12.76;60.36;101144.81;4897546;28;98912;-62
2020/12/16 04:25:34;;;;;;;8.73;7.93;;;11.90;99.90;;;12.88;59.83;101154.97;4930027;28;101170;-62
2020/12/16 04:28:00;;;;;;;9.27;8.37;;;12.00;99.90;;;12.65;59.63;101162.88;4886758;28;99592;-62
2020/12/16 04:30:27;;;;;;;11.20;9.93;;;12.00;99.90;;;12.51;59.74;101164.22;4901277;28;98194;-62
2020/12/16 04:32:56;;;;;;;11.00;9.80;;;11.90;99.90;;;12.43;59.91;101171.56;4899510;28;97508;-62
2020/12/16 04:35:27;;;;;;;10.60;9.20;;;11.80;99.90;;;12.28;60.04;101174.72;4908113;28;97382;-62
2020/12/16 04:37:55;;;;;;;10.30;9.27;;;11.60;99.90;;;12.20;59.81;101177.66;4905569;28;96920;-62
2020/12/16 04:40:23;;;;;;;10.30;9.20;;;11.60;99.90;;;12.20;61.00;101177.66;4904041;28;96586;-61
2020/12/16 04:43:22;;;;;;;10.93;9.93;;;11.50;99.90;;;12.14;60.18;101183.13;4900126;28;105845;-62
2020/12/16 04:45:50;;;;;;;11.53;9.70;;;11.50;99.90;;;11.99;60.55;101182.78;4876398;28;99582;-61
2020/12/16 04:48:16;;;;;;;14.93;10.10;;;11.40;99.90;;;12.01;60.55;101181.84;4909184;28;97194;-62
2020/12/16 04:50:44;;;;;;;11.13;10.03;;;11.40;99.90;;;11.99;60.68;101183.66;4905163;28;96929;-62
2020/12/16 04:53:14;;;;;;;13.40;9.60;;;11.40;99.90;;;11.86;59.85;101179.69;4907209;28;98227;-62
2020/12/16 04:55:40;;;;;;;9.67;8.73;;;11.30;99.90;;;11.78;60.11;101179.06;4913824;28;98958;-61
2020/12/16 04:58:09;;;;;;;10.17;8.73;;;11.20;99.90;;;11.68;60.26;101177.59;4881857;28;97217;-62
2020/12/16 05:00:36;;;;;;;8.73;7.83;;;11.10;99.90;;;11.70;60.55;101181.06;4896349;28;96724;-62
2020/12/16 05:03:07;;;;;;;9.30;8.40;;;11.00;99.90;;;11.55;59.97;101180.63;4881059;28;108799;-62
2020/12/16 05:05:34;;;;;;;11.70;8.27;;;10.90;99.90;;;11.53;60.22;101171.88;4889129;28;100138;-62
2020/12/16 05:08:15;;;;;;;9.57;7.97;;;10.80;99.90;;;11.42;59.92;101179.28;4892136;28;96958;-62
2020/12/16 05:10:48;;;;;;;8.57;7.63;;;10.70;99.90;;;11.36;60.00;101176.84;4914069;28;96995;-62
2020/12/16 05:13:19;;;;;;;7.50;6.80;;;10.70;99.90;;;11.33;60.43;101182.22;4898390;28;97426;-60
2020/12/16 05:15:48;;;;;;;9.37;8.13;;;10.60;99.90;;;11.28;59.87;101178.84;4892080;28;99148;-62
2020/12/16 05:18:22;;;;;;;9.33;8.00;;;10.60;99.90;;;11.32;60.76;101185.78;4907667;28;97486;-62
2020/12/16 05:21:00;;;;;;;9.60;8.60;;;10.60;99.90;;;11.36;58.89;101184.75;4912414;28;97052;-62
2020/12/16 05:23:29;;;;;;;9.30;8.20;;;10.60;99.90;;;11.15;59.21;101183.66;4899122;28;100384;-62
2020/12/16 05:26:09;;;;;;;10.70;9.60;;;10.50;99.90;;;11.09;61.37;101196.16;4901245;28;97299;-62
2020/12/16 05:28:46;;;;;;;9.53;8.50;;;10.40;99.90;;;11.03;60.41;101202.47;4908295;28;96540;-61
2020/12/16 05:31:14;;;;;;;9.20;8.30;;;10.40;99.90;;;11.07;59.71;101195.31;4894985;28;97321;-62
2020/12/16 05:33:48;;;;;;;10.03;8.07;;;10.40;99.90;;;11.02;59.96;101188.41;4909243;28;101779;-62
2020/12/16 05:36:31;;;;;;;9.17;8.03;;;10.30;99.90;;;11.09;59.90;101190.88;4902210;28;98603;-62
2020/12/16 05:38:59;;;;;;;10.03;8.87;;;10.30;99.90;;;11.09;59.67;101188.22;4926458;28;96721;-61
2020/12/16 05:41:30;;;;;;;9.13;8.23;;;10.30;99.90;;;11.08;61.07;101186.50;4897293;28;97428;-62
2020/12/16 05:44:19;;;;;;;8.47;7.57;;;10.30;99.90;;;11.19;60.48;101184.41;4917026;28;97331;-62
2020/12/16 05:46:49;;;;;;;9.97;8.47;;;10.40;99.90;;;11.02;58.91;101198.97;4888440;28;102472;-62
2020/12/16 05:49:28;;;;;;;11.20;8.43;;;10.30;99.90;;;10.99;58.93;101199.06;4909474;28;97152;-62
2020/12/16 05:52:05;;;;;;;12.20;8.87;;;10.20;99.90;;;10.89;59.39;101202.00;4884522;28;101456;-62
2020/12/16 05:54:37;;;;;;;12.20;8.57;;;10.10;99.90;;;10.83;58.96;101213.59;4908482;28;99791;-62
2020/12/16 05:57:19;;;;;;;11.87;8.70;;;10.10;99.90;;;10.79;59.14;101211.94;4880474;28;101833;-62
2020/12/16 06:00:12;;;;;;;9.07;8.17;;;10.10;99.90;;;10.84;60.54;101215.31;4906630;28;96963;-62
2020/12/16 06:02:41;;;;;;;10.87;7.70;;;10.00;99.90;;;10.70;59.10;101218.34;4901015;28;96696;-62
2020/12/16 06:05:16;;;;;;;9.20;8.23;;;10.00;99.90;;;10.82;61.51;101211.84;4907795;28;100305;-61
2020/12/16 06:07:47;;;;;;;15.73;9.07;;;10.00;99.90;;;10.77;59.49;101207.63;4901140;28;100031;-62
2020/12/16 06:10:14;;;;;;;9.63;8.60;;;10.00;99.90;;;10.83;60.98;101208.31;4896797;28;96956;-62
2020/12/16 06:12:42;;;;;;;12.10;8.93;;;10.00;99.90;;;10.87;61.38;101209.97;4882515;28;97322;-62
2020/12/16 06:15:13;;;;;;;8.83;7.93;;;10.00;99.90;;;10.89;58.57;101207.28;4893342;28;100660;-62
2020/12/16 06:17:45;;;;;;;12.47;9.20;;;10.00;99.90;;;10.95;60.19;101207.97;4900968;28;99615;-62
2020/12/16 06:20:14;;;;;;;10.13;8.77;;;10.10;99.90;;;10.97;58.86;101208.78;4902325;28;97098;-62
2020/12/16 06:22:43;;;;;;;12.17;10.00;;;10.10;99.90;;;11.01;58.75;101217.50;4898293;28;97131;-62
2020/12/16 06:25:12;;;;;;;10.77;9.00;;;10.20;99.90;;;11.06;59.20;101220.88;4907971;28;98197;-62
2020/12/16 06:27:47;;;;;;;10.67;8.70;;;10.20;99.90;;;11.10;60.59;101221.63;4888439;28;97511;-62
2020/12/16 06:30:28;;;;;;;10.90;9.60;;;10.20;99.90;;;11.03;59.87;101221.81;4906513;28;96989;-62
2020/12/16 06:33:12;;;;;;;10.77;9.67;;;10.20;99.90;;;11.11;60.63;101220.72;4898752;28;97106;-62
2020/12/16 06:35:40;;;;;;;11.13;9.37;;;10.30;99.90;;;11.16;59.59;101221.47;4917249;28;103461;-62
2020/12/16 06:38:48;;;;;;;10.37;9.07;;;10.30;99.90;;;11.24;60.65;101227.38;4884661;28;99586;-62
2020/12/16 06:41:30;;;;;;;11.13;9.93;;;10.30;99.90;;;11.28;61.50;101226.38;4891983;28;96967;-62
2020/12/16 06:44:08;;;;;;;11.50;10.30;;;10.30;99.90;;;11.28;60.22;101236.94;4895524;28;100372;-62
2020/12/16 06:46:34;;;;;;;12.23;9.70;;;10.40;99.90;;;11.39;60.04;101234.84;4908391;28;99457;-62
2020/12/16 06:49:22;;;;;;;10.13;9.00;;;10.50;99.90;;;11.57;62.06;101239.59;4906435;28;100451;-62
2020/12/16 06:51:57;;;;;;;8.87;7.97;;;10.50;99.90;;;11.56;60.77;101243.13;4930792;28;96944;-62
2020/12/16 06:54:26;;;;;;;13.53;10.00;;;10.70;99.90;;;11.84;60.86;101247.59;4926011;28;96960;-62
2020/12/16 06:57:25;;;;;;;11.27;9.27;;;10.80;99.90;;;11.97;60.91;101254.22;4900235;28;100851;-62
2020/12/16 06:59:58;;;;;;;8.10;6.73;;;10.90;99.90;;;12.10;61.23;101255.56;4901723;28;97172;-62
2020/12/16 07:02:35;;;;;;;10.73;9.60;;;11.10;99.90;;;12.30;60.40;101248.78;4898940;28;98172;-62
2020/12/16 07:05:06;;;;;;;11.83;9.80;;;11.40;99.90;;;12.30;58.58;101256.72;4900670;28;97398;-62
2020/12/16 07:07:42;;;;;;;8.37;7.57;;;11.50;99.90;;;12.64;59.51;101261.72;4899747;28;98121;-62
2020/12/16 07:10:41;;;;;;;6.13;5.43;;;11.70;99.90;;;12.87;58.89;101248.53;4893242;28;102204;-62
2020/12/16 07:13:16;;;;;;;11.53;9.00;;;11.90;99.90;;;12.91;57.66;101244.00;4910412;28;97435;-62
2020/12/16 07:15:47;;;;;;;10.43;9.37;;;12.00;99.90;;;12.95;57.32;101250.91;4921774;28;107726;-62
2020/12/16 07:18:29;;;;;;;11.73;9.57;;;12.00;99.90;;;12.85;57.67;101246.84;4897232;28;99132;-62
2020/12/16 07:21:23;;;;;;;6.47;5.53;;;11.90;99.90;;;12.98;57.85;101256.09;4897447;28;99198;-66
2020/12/16 07:24:12;;;;;;;10.07;8.90;;;11.90;99.90;;;12.89;57.26;101257.31;4976478;23;97823;-62
2020/12/16 07:26:55;;;;;;;26.97;24.27;;;11.90;99.90;;;12.93;57.56;101258.91;4935171;28;102104;-62
2020/12/16 07:29:26;;;;;;;17.53;15.23;;;11.90;99.90;;;13.05;57.55;101258.47;4923338;28;100506;-62
2020/12/16 07:32:07;;;;;;;12.20;10.97;;;12.00;99.90;;;13.03;56.67;101254.16;4931244;28;99256;-62
2020/12/16 07:34:53;;;;;;;10.77;9.70;;;12.00;99.90;;;12.82;56.20;101253.97;4945591;28;97571;-62
2020/12/16 07:37:23;;;;;;;11.20;9.83;;;11.90;99.90;;;12.72;58.13;101247.28;4932784;28;96897;-62
2020/12/16 07:39:52;;;;;;;11.03;9.93;;;11.80;99.90;;;12.51;56.83;101245.38;4936455;28;96957;-62
2020/12/16 07:42:39;;;;;;;12.43;9.90;;;11.60;99.90;;;12.65;58.33;101248.44;4910783;28;99793;-63
2020/12/16 07:45:09;;;;;;;9.60;7.93;;;11.70;99.90;;;12.73;59.17;101246.38;4940110;28;96785;-62
2020/12/16 07:47:36;;;;;;;8.30;7.43;;;11.70;99.90;;;12.91;58.36;101238.72;4911978;28;97645;-62
2020/12/16 07:50:03;;;;;;;8.10;7.30;;;11.90;99.90;;;12.94;58.07;101241.22;4941815;28;103728;-62
2020/12/16 07:52:30;;;;;;;10.30;9.20;;;12.00;99.90;;;12.86;57.71;101238.84;4918077;28;99354;-62
2020/12/16 07:55:00;;;;;;;8.67;7.77;;;11.90;99.90;;;12.84;58.06;101242.47;4920425;28;97026;-62
2020/12/16 07:57:31;;;;;;;11.03;9.93;;;11.80;99.90;;;12.73;57.58;101251.69;4925194;28;110569;-61
2020/12/16 07:59:58;;;;;;;12.73;10.67;;;11.80;99.90;;;12.54;57.37;101255.00;4933949;28;101889;-62
2020/12/16 08:02:24;;;;;;;11.53;10.30;;;11.70;99.90;;;12.51;58.62;101261.28;4925466;28;111163;-62
2020/12/16 08:05:02;;;;;;;9.07;8.17;;;11.60;99.90;;;12.47;58.37;101251.72;4932874;28;99828;-61
2020/12/16 08:07:29;;;;;;;13.67;11.77;;;11.50;99.90;;;11.97;57.95;101254.22;4908894;28;97201;-55
2020/12/16 08:10:05;;;;;;;17.57;15.00;;;10.90;99.90;;;10.94;61.61;101247.59;4935587;28;96886;-52
2020/12/16 08:12:33;;;;;;;18.20;13.63;;;9.80;99.90;;;10.29;64.98;101252.84;4940774;28;102595;-49
2020/12/16 08:15:11;;;;;;;18.00;14.70;;;9.40;99.90;;;9.87;67.50;101249.44;4937654;28;97341;-49
2020/12/16 08:17:42;;;;;;;18.43;15.03;;;9.10;99.90;;;9.50;67.75;101250.28;4922946;28;97033;-53
2020/12/16 08:20:29;;;;;;;19.37;15.60;;;8.80;99.90;;;9.19;69.49;101258.81;4916067;28;97710;-55
2020/12/16 08:22:58;;;;;;;20.97;16.10;;;8.60;99.90;;;8.94;70.42;101260.19;4923236;28;97281;-48
2020/12/16 08:25:25;;;;;;;20.57;16.10;;;8.40;99.90;;;8.73;71.68;101256.22;4940592;28;96880;-51
2020/12/16 08:27:54;;;;;;;20.70;16.47;;;8.30;99.90;;;8.60;73.33;101263.47;4918600;28;98960;-48
2020/12/16 08:30:23;;;;;;;18.90;14.87;;;8.20;99.90;;;8.55;72.94;101257.44;4912816;28;100888;-57
2020/12/16 08:33:14;;;;;;;20.43;15.17;;;8.30;99.90;;;8.61;74.10;101256.44;4945643;28;99720;-54
2020/12/16 08:35:53;;;;;;;18.83;14.10;;;8.30;99.90;;;8.66;75.13;101254.56;4933300;28;97233;-55
2020/12/16 08:38:40;;;;;;;16.93;14.33;;;8.40;99.90;;;8.69;75.12;101258.94;4923463;28;97220;-56
2020/12/16 08:41:13;;;;;;;13.40;11.33;;;8.50;99.90;;;9.14;75.71;101257.19;4935565;28;98790;-58
2020/12/16 08:43:42;;;;;;;19.43;7.40;;;8.90;99.90;;;9.83;72.88;101260.03;4903465;28;104084;-59
2020/12/16 08:46:18;;;;;;;13.97;5.80;;;9.50;99.90;;;10.58;69.09;101246.84;4930397;28;97343;-58
2020/12/16 08:49:04;;;;;;;12.03;5.77;;;10.20;99.90;;;11.17;67.08;101249.63;4919139;28;103559;-57
2020/12/16 08:51:38;;;;;;;8.00;4.33;;;10.80;99.90;;;11.80;64.59;101248.63;4935902;28;97371;-57
2020/12/16 08:54:10;;;;;;;10.10;3.53;;;11.40;99.90;;;12.46;61.94;101252.63;4925618;28;98858;-58
2020/12/16 08:56:43;;;;;;;8.07;3.60;;;12.10;99.90;;;13.28;59.28;101244.38;4931353;28;97019;-59
2020/12/16 08:59:16;;;;;;;10.57;3.47;;;13.00;99.90;;;13.66;58.06;101244.72;4917991;28;97037;-53
2020/12/16 09:01:51;;;;;;;6.23;3.43;;;13.50;99.90;;;14.18;56.53;101242.66;4950929;28;97550;-56
2020/12/16 09:04:28;;;;;;;7.17;4.20;;;14.10;99.90;;;14.61;54.90;101243.50;4919221;28;97474;-58
2020/12/16 09:07:12;;;;;;;9.00;2.90;;;14.60;99.90;;;14.88;53.84;101236.97;4919541;28;97120;-55
2020/12/16 09:09:54;;;;;;;4.03;2.73;;;14.90;99.90;;;15.16;52.93;101240.13;4942026;28;96981;-56
2020/12/16 09:12:22;;;;;;;6.47;3.70;;;15.10;99.90;;;15.35;52.44;101228.69;4935528;28;102831;-58
2020/12/16 09:14:52;;;;;;;4.90;2.50;;;15.40;99.90;;;15.50;51.83;101237.72;4919504;28;103437;-56
2020/12/16 09:17:18;;;;;;;4.63;3.80;;;15.50;99.90;;;15.59;51.62;101232.84;4935456;28;98607;-58
2020/12/16 09:19:44;;;;;;;6.50;3.30;;;15.60;99.90;;;15.87;50.88;101236.84;4925260;28;97006;-56
2020/12/16 09:22:10;;;;;;;4.10;2.30;;;15.80;99.60;;;16.06;50.35;101227.06;4946686;28;97475;-58
2020/12/16 09:24:36;;;;;;;5.17;1.87;;;16.10;99.10;;;16.27;49.84;101231.28;4925030;28;105412;-58
2020/12/16 09:27:09;;;;;;;3.83;1.80;;;16.40;98.50;;;16.44;49.25;101230.44;4920796;28;115465;-58
2020/12/16 09:29:43;;;;;;;3.87;2.67;;;16.50;98.00;;;16.23;49.92;101228.88;4932805;28;97493;-56
2020/12/16 09:32:15;;;;;;;3.50;2.33;;;16.20;98.80;;;16.44;49.49;101234.91;4924337;28;97270;-57
2020/12/16 09:34:49;;;;;;;5.90;3.53;;;16.40;98.20;;;16.49;49.13;101224.88;4936498;28;97027;-58
2020/12/16 09:37:32;;;;;;;3.43;2.93;;;16.50;97.80;;;16.46;49.14;101238.34;4925562;28;99946;-57
2020/12/16 09:40:17;;;;;;;4.00;2.90;;;16.50;97.50;;;16.33;49.65;101246.09;4937669;28;96986;-55
2020/12/16 09:42:58;;;;;;;2.90;2.03;;;16.20;98.70;;;16.24;49.95;101244.78;4891226;28;107468;-57
2020/12/16 09:45:24;;;;;;;3.77;2.53;;;16.00;99.00;;;16.14;50.38;101248.81;4888469;28;98456;-55
2020/12/16 09:47:52;;;;;;;3.50;3.20;;;15.90;99.50;;;16.00;50.61;101249.50;4899130;28;98238;-58
2020/12/16 09:50:30;;;;;;;6.27;5.70;;;15.80;99.40;;;16.05;50.51;101246.59;4906947;28;99137;-59
2020/12/16 09:53:05;;;;;;;2.90;2.17;;;15.90;99.50;;;16.13;49.67;101244.44;4870377;28;98236;-55
2020/12/16 09:55:43;;;;;;;2.90;1.57;;;15.90;98.80;;;16.21;49.97;101242.25;4891792;28;99275;-57
2020/12/16 09:58:12;;;;;;;2.77;1.90;;;16.00;98.90;;;16.45;49.35;101248.13;4898613;28;97033;-57
2020/12/16 10:00:40;;;;;;;2.60;1.40;;;16.40;98.00;;;16.50;49.22;101247.94;4920664;28;97455;-57
2020/12/16 10:03:14;;;;;;;6.30;5.33;;;16.50;97.70;;;16.51;49.30;101239.84;4916028;28;98228;-57
2020/12/16 10:05:40;;;;;;;1.43;1.30;;;16.60;98.00;;;16.57;48.82;101242.19;4896484;28;99107;-57
2020/12/16 10:08:11;;;;;;;2.13;1.40;;;16.60;97.50;;;16.70;48.41;101244.25;4901600;28;100385;-58
2020/12/16 10:10:37;;;;;;;2.43;1.90;;;16.70;97.10;;;16.77;48.49;101235.84;4909074;28;99922;-60
2020/12/16 10:13:03;;;;;;;3.03;1.57;;;16.80;96.90;;;16.70;48.49;101233.59;4890048;28;99183;-56
2020/12/16 10:15:29;;;;;;;5.70;5.13;;;16.70;97.20;;;16.48;49.68;101233.81;4917772;28;98381;-55
2020/12/16 10:17:55;;;;;;;2.27;1.30;;;16.40;98.30;;;16.46;49.11;101235.69;4899125;28;110371;-57
2020/12/16 10:20:22;;;;;;;2.53;1.47;;;16.30;98.10;;;16.53;49.10;101226.47;4918255;28;98011;-58
2020/12/16 10:22:48;;;;;;;5.93;5.30;;;16.40;97.90;;;16.55;49.40;101230.75;4931545;28;99644;-57
2020/12/16 10:25:14;;;;;;;4.43;1.60;;;16.50;98.10;;;16.69;48.55;101219.44;4905836;28;100620;-57